Time;durP1;ratioP1;P1;durP2;ratioP2;P2;SDS_P1;SDS_P2;PMS_P1;PMS_P2;Temp;Humidity;BMP_temperature;BMP_pressure;BME280_temperature;BME280_humidity;BME280_pressure;Samples;Min_cycle;Max_cycle;Signal;HPM_P1;HPM_P2
2022/03/22 00:00:33;;;;;;;;;;;7.30;99.90;;;;;;5114034;28;20354;-87
2022/03/22 00:03:00;;;;;;;;;;;7.10;99.90;;;;;;5114616;28;19934;-87
2022/03/22 00:05:31;;;;;;;;;;;7.20;99.90;;;;;;5114688;28;19992;-88
2022/03/22 00:08:00;;;;;;;;;;;7.40;99.90;;;;;;5114243;28;19950;-88
2022/03/22 00:10:27;;;;;;;;;;;6.90;99.90;;;;;;5114057;28;19924;-87
2022/03/22 00:12:54;;;;;;;;;;;7.80;99.90;;;;;;5114236;28;19927;-87
2022/03/22 00:15:21;;;;;;;;;;;7.60;99.90;;;;;;5114530;28;19924;-87
2022/03/22 00:17:48;;;;;;;;;;;8.70;99.90;;;;;;5114625;28;19976;-87
2022/03/22 00:20:15;;;;;;;;;;;7.10;99.90;;;;;;5114050;28;20385;-87
2022/03/22 00:22:43;;;;;;;;;;;7.00;99.90;;;;;;5114767;28;19955;-87
2022/03/22 00:25:11;;;;;;;;;;;6.50;99.90;;;;;;5114351;28;19931;-88
2022/03/22 00:27:51;;;;;;;;;;;6.80;99.90;;;;;;5114277;28;19924;-87
2022/03/22 00:30:18;;;;;;;;;;;6.80;99.90;;;;;;5113935;28;20362;-87
2022/03/22 00:32:45;;;;;;;;;;;6.80;99.90;;;;;;5114292;28;20369;-88
2022/03/22 00:35:12;;;;;;;;;;;5.40;99.90;;;;;;5114690;28;19994;-87
2022/03/22 00:37:41;;;;;;;;;;;6.90;99.90;;;;;;5118849;28;19931;-86
2022/03/22 00:40:15;;;;;;;;;;;7.10;99.90;;;;;;5131547;28;19923;-86
2022/03/22 00:42:42;;;;;;;;;;;6.70;99.90;;;;;;5130862;28;19928;-87
2022/03/22 00:45:10;;;;;;;;;;;7.20;99.90;;;;;;5129559;28;20007;-87
2022/03/22 00:47:37;;;;;;;;;;;6.80;99.90;;;;;;5126442;28;20017;-87
2022/03/22 00:50:04;;;;;;;;;;;6.80;99.90;;;;;;5115400;28;19923;-88
2022/03/22 00:52:32;;;;;;;;;;;5.80;99.90;;;;;;5117544;28;19931;-88
2022/03/22 00:55:00;;;;;;;;;;;6.80;99.90;;;;;;5117711;28;19980;-88
2022/03/22 00:57:29;;;;;;;;;;;6.80;99.90;;;;;;5117942;28;20000;-88
2022/03/22 01:00:08;;;;;;;;;;;5.80;99.90;;;;;;5117354;28;19934;-87
2022/03/22 01:02:36;;;;;;;;;;;6.90;99.90;;;;;;5117577;28;19931;-87
2022/03/22 01:05:03;;;;;;;;;;;6.90;99.90;;;;;;5117703;27;19927;-86
2022/03/22 01:10:52;;;;;;;;;;;6.90;99.90;;;;;;5116767;28;19970;-86
2022/03/22 01:13:20;;;;;;;;;;;6.90;99.90;;;;;;5117717;28;19924;-87
2022/03/22 01:15:47;;;;;;;;;;;6.70;99.90;;;;;;5117682;28;19931;-87
2022/03/22 01:18:14;;;;;;;;;;;6.00;99.90;;;;;;5117026;28;19927;-86
2022/03/22 01:20:42;;;;;;;;;;;7.30;99.90;;;;;;5117055;28;19993;-86
2022/03/22 01:23:09;;;;;;;;;;;6.60;99.90;;;;;;5117619;28;19924;-87
2022/03/22 01:25:37;;;;;;;;;;;6.60;99.90;;;;;;5117248;28;19928;-86
2022/03/22 01:28:05;;;;;;;;;;;6.50;99.90;;;;;;5117209;28;19923;-87
2022/03/22 01:30:34;;;;;;;;;;;6.60;99.90;;;;;;5117409;28;19989;-87
2022/03/22 01:33:01;;;;;;;;;;;4.90;99.90;;;;;;5117160;28;20011;-88
2022/03/22 01:35:27;;;;;;;;;;;7.30;99.90;;;;;;5117216;28;19923;-87
2022/03/22 01:37:55;;;;;;;;;;;7.20;99.90;;;;;;5117510;28;19928;-87
2022/03/22 01:40:45;;;;;;;;;;;5.70;99.90;;;;;;5116701;28;19932;-87
2022/03/22 01:43:12;;;;;;;;;;;6.50;99.90;;;;;;5116027;28;20426;-87
2022/03/22 01:45:40;;;;;;;;;;;6.60;99.90;;;;;;5116805;28;19923;-87
2022/03/22 01:48:07;;;;;;;;;;;6.50;99.90;;;;;;5116973;28;19924;-86
2022/03/22 01:50:36;;;;;;;;;;;6.50;99.90;;;;;;5117111;28;19948;-87
2022/03/22 01:53:03;;;;;;;;;;;6.50;99.90;;;;;;5116960;28;19931;-87
2022/03/22 01:55:30;;;;;;;;;;;6.60;99.90;;;;;;5117141;28;19924;-88
2022/03/22 01:57:58;;;;;;;;;;;6.60;99.90;;;;;;5116496;28;19959;-88
2022/03/22 02:00:24;;;;;;;;;;;7.30;99.90;;;;;;5116482;28;19924;-87
2022/03/22 02:05:56;;;;;;;;;;;6.60;99.90;;;;;;5116702;28;19930;-86
2022/03/22 02:08:26;;;;;;;;;;;6.50;99.90;;;;;;5116863;28;19923;-87
2022/03/22 02:10:53;;;;;;;;;;;6.50;99.90;;;;;;5116817;28;20018;-87
2022/03/22 02:13:20;;;;;;;;;;;5.70;99.90;;;;;;5116113;28;19928;-87
2022/03/22 02:15:49;;;;;;;;;;;6.60;99.90;;;;;;5116506;28;20003;-88
2022/03/22 02:18:17;;;;;;;;;;;6.80;99.90;;;;;;5116366;28;19928;-87
2022/03/22 02:20:45;;;;;;;;;;;6.50;99.90;;;;;;5116266;28;19923;-86
2022/03/22 02:23:14;;;;;;;;;;;6.70;99.90;;;;;;5116054;28;19927;-87
2022/03/22 02:25:43;;;;;;;;;;;6.50;99.90;;;;;;5116608;28;19932;-88
2022/03/22 02:28:12;;;;;;;;;;;6.60;99.90;;;;;;5116321;28;19930;-87
2022/03/22 02:30:44;;;;;;;;;;;6.60;99.90;;;;;;5116387;28;20346;-87
2022/03/22 02:33:11;;;;;;;;;;;6.50;99.90;;;;;;5116270;28;20015;-87
2022/03/22 02:35:39;;;;;;;;;;;6.70;99.90;;;;;;5116486;28;19954;-87
2022/03/22 02:38:07;;;;;;;;;;;6.80;99.90;;;;;;5116230;28;19931;-87
2022/03/22 02:40:34;;;;;;;;;;;6.60;99.90;;;;;;5115755;28;19981;-86
2022/03/22 02:43:03;;;;;;;;;;;7.00;99.90;;;;;;5116010;28;19924;-88
2022/03/22 02:45:29;;;;;;;;;;;6.40;99.90;;;;;;5116443;28;19931;-87
2022/03/22 02:47:56;;;;;;;;;;;5.70;99.90;;;;;;5119523;28;19927;-86
2022/03/22 02:50:23;;;;;;;;;;;6.70;99.90;;;;;;5130675;28;19987;-86
2022/03/22 02:52:51;;;;;;;;;;;6.80;99.90;;;;;;5131684;28;19987;-87
2022/03/22 02:55:18;;;;;;;;;;;6.40;99.90;;;;;;5132878;28;19923;-86
2022/03/22 02:57:45;;;;;;;;;;;6.90;99.90;;;;;;5123055;28;20315;-86
2022/03/22 03:00:14;;;;;;;;;;;3.30;99.90;;;;;;5116908;28;19931;-87
2022/03/22 03:02:42;;;;;;;;;;;6.40;99.90;;;;;;5115163;28;19939;-87
2022/03/22 03:05:09;;;;;;;;;;;6.50;99.90;;;;;;5115918;28;20011;-87
2022/03/22 03:07:36;;;;;;;;;;;6.30;99.90;;;;;;5115591;28;19924;-88
2022/03/22 03:10:03;;;;;;;;;;;4.50;99.90;;;;;;5115397;28;20399;-87
2022/03/22 03:12:30;;;;;;;;;;;6.20;99.90;;;;;;5115586;28;19930;-87
2022/03/22 03:14:57;;;;;;;;;;;6.10;99.90;;;;;;5115155;28;19928;-87
2022/03/22 03:17:26;;;;;;;;;;;6.90;99.90;;;;;;5114991;28;20438;-87
2022/03/22 03:19:53;;;;;;;;;;;4.90;99.90;;;;;;5114572;28;19935;-87
2022/03/22 03:22:19;;;;;;;;;;;7.10;99.90;;;;;;5115164;28;19923;-87
2022/03/22 03:24:46;;;;;;;;;;;3.70;99.90;;;;;;5115058;28;19924;-87
2022/03/22 03:27:13;;;;;;;;;;;6.50;99.90;;;;;;5114639;28;20005;-87
2022/03/22 03:29:40;;;;;;;;;;;6.00;99.90;;;;;;5114338;28;19927;-88
2022/03/22 03:32:07;;;;;;;;;;;4.60;99.90;;;;;;5114722;28;19977;-87
2022/03/22 03:34:37;;;;;;;;;;;6.30;99.90;;;;;;5114641;28;19927;-88
2022/03/22 03:37:05;;;;;;;;;;;5.90;99.90;;;;;;5114411;28;19934;-87
2022/03/22 03:39:31;;;;;;;;;;;5.90;99.90;;;;;;5114562;28;19924;-87
2022/03/22 03:41:59;;;;;;;;;;;6.10;99.90;;;;;;5114648;27;19938;-86
2022/03/22 03:47:12;;;;;;;;;;;6.10;99.90;;;;;;5114940;28;19953;-86
2022/03/22 03:49:41;;;;;;;;;;;4.70;99.90;;;;;;5114368;28;20385;-87
2022/03/22 03:52:09;;;;;;;;;;;5.80;99.90;;;;;;5114462;28;19927;-87
2022/03/22 03:54:36;;;;;;;;;;;6.00;99.90;;;;;;5114556;28;19928;-86
2022/03/22 03:57:04;;;;;;;;;;;4.60;99.90;;;;;;5114386;28;19928;-87
2022/03/22 03:59:30;;;;;;;;;;;7.10;99.90;;;;;;5114294;28;20006;-88
2022/03/22 04:01:57;;;;;;;;;;;5.80;99.90;;;;;;5114440;28;19934;-87
2022/03/22 04:04:24;;;;;;;;;;;5.80;99.90;;;;;;5114729;28;19931;-87
2022/03/22 04:06:52;;;;;;;;;;;5.70;99.90;;;;;;5114472;28;19928;-88
2022/03/22 04:09:19;;;;;;;;;;;5.70;99.90;;;;;;5114397;28;19927;-87
2022/03/22 04:11:46;;;;;;;;;;;5.80;99.90;;;;;;5114407;28;19968;-87
2022/03/22 04:14:13;;;;;;;;;;;8.20;99.90;;;;;;5114657;28;19931;-88
2022/03/22 04:16:41;;;;;;;;;;;5.60;99.90;;;;;;5114342;28;19927;-87
2022/03/22 04:19:10;;;;;;;;;;;8.60;99.90;;;;;;5114326;28;19976;-87
2022/03/22 04:21:37;;;;;;;;;;;6.50;99.90;;;;;;5114352;28;19924;-87
2022/03/22 04:24:07;;;;;;;;;;;5.70;99.90;;;;;;5114527;28;19935;-87
2022/03/22 04:26:34;;;;;;;;;;;6.20;99.90;;;;;;5113791;28;19930;-87
2022/03/22 04:34:32;;;;;;;;;;;5.60;99.90;;;;;;5114206;28;19993;-87
2022/03/22 04:37:05;;;;;;;;;;;5.50;99.90;;;;;;5113622;28;20321;-87
2022/03/22 04:39:35;;;;;;;;;;;6.30;99.90;;;;;;5114512;28;19946;-86
2022/03/22 04:42:04;;;;;;;;;;;5.50;99.90;;;;;;5113928;28;19969;-87
2022/03/22 04:44:31;;;;;;;;;;;7.20;99.90;;;;;;5114333;28;19967;-87
2022/03/22 04:46:58;;;;;;;;;;;6.20;99.90;;;;;;5113791;28;19924;-86
2022/03/22 04:49:25;;;;;;;;;;;5.80;99.90;;;;;;5114028;28;19924;-87
2022/03/22 04:57:24;;;;;;;;;;;5.10;99.90;;;;;;5114400;28;20331;-86
2022/03/22 04:59:51;;;;;;;;;;;6.40;99.90;;;;;;5124910;28;19931;-86
2022/03/22 05:02:19;;;;;;;;;;;6.20;99.90;;;;;;5127550;28;19923;-86
2022/03/22 05:04:46;;;;;;;;;;;6.10;99.90;;;;;;5129242;28;19927;-86
2022/03/22 05:07:13;;;;;;;;;;;5.50;99.90;;;;;;5125565;28;19985;-87
2022/03/22 05:09:41;;;;;;;;;;;4.70;99.90;;;;;;5114951;28;19924;-87
2022/03/22 05:12:13;;;;;;;;;;;5.90;99.90;;;;;;5114221;28;19923;-87
2022/03/22 05:14:43;;;;;;;;;;;5.80;99.90;;;;;;5114184;28;19931;-86
2022/03/22 05:17:11;;;;;;;;;;;5.40;99.90;;;;;;5113825;28;19932;-87
2022/03/22 05:19:38;;;;;;;;;;;5.70;99.90;;;;;;5113652;28;20444;-87
2022/03/22 05:22:05;;;;;;;;;;;5.60;99.90;;;;;;5113657;28;19924;-87
2022/03/22 05:24:32;;;;;;;;;;;5.50;99.90;;;;;;5114029;28;19966;-87
2022/03/22 05:27:00;;;;;;;;;;;5.80;99.90;;;;;;5113501;28;19969;-87
2022/03/22 05:29:27;;;;;;;;;;;5.90;99.90;;;;;;5113840;28;19931;-86
2022/03/22 05:31:54;;;;;;;;;;;6.10;99.90;;;;;;5113760;28;19932;-86
2022/03/22 05:34:21;;;;;;;;;;;6.10;99.90;;;;;;5113787;28;20271;-86
2022/03/22 05:36:48;;;;;;;;;;;5.40;99.90;;;;;;5113480;28;19924;-86
2022/03/22 05:39:15;;;;;;;;;;;6.60;99.90;;;;;;5115893;28;20010;-86
2022/03/22 05:41:42;;;;;;;;;;;5.40;99.90;;;;;;5116867;28;20022;-87
2022/03/22 05:44:13;;;;;;;;;;;4.20;99.90;;;;;;5116731;28;19953;-87
2022/03/22 05:46:40;;;;;;;;;;;3.80;99.90;;;;;;5116533;28;19973;-87
2022/03/22 05:49:08;;;;;;;;;;;5.30;99.90;;;;;;5116747;28;20267;-87
2022/03/22 05:51:35;;;;;;;;;;;6.30;99.90;;;;;;5116407;28;20536;-87
2022/03/22 05:54:02;;;;;;;;;;;5.40;99.90;;;;;;5117063;28;19947;-87
2022/03/22 05:56:30;;;;;;;;;;;5.40;99.90;;;;;;5117189;28;19924;-87
2022/03/22 05:58:59;;;;;;;;;;;6.30;99.90;;;;;;5117000;28;19935;-87
2022/03/22 06:01:27;;;;;;;;;;;5.40;99.90;;;;;;5116880;28;19931;-87
2022/03/22 06:03:54;;;;;;;;;;;6.50;99.90;;;;;;5116697;28;19935;-88
2022/03/22 06:06:21;;;;;;;;;;;5.40;99.90;;;;;;5116751;27;19924;-87
2022/03/22 06:08:50;;;;;;;;;;;7.20;99.90;;;;;;5116804;28;19923;-88
2022/03/22 06:11:18;;;;;;;;;;;5.50;99.90;;;;;;5116854;28;19928;-87
2022/03/22 06:13:45;;;;;;;;;;;5.50;99.90;;;;;;5117183;28;19968;-87
2022/03/22 06:16:12;;;;;;;;;;;4.90;99.90;;;;;;5116405;28;19924;-88
2022/03/22 06:18:40;;;;;;;;;;;6.10;99.90;;;;;;5116969;28;19924;-88
2022/03/22 06:21:07;;;;;;;;;;;5.60;99.90;;;;;;5116512;28;19924;-88
2022/03/22 06:23:34;;;;;;;;;;;5.30;99.90;;;;;;5116548;28;20022;-86
2022/03/22 06:26:04;;;;;;;;;;;5.60;99.90;;;;;;5116001;28;19924;-87
2022/03/22 06:28:31;;;;;;;;;;;6.20;99.90;;;;;;5116295;28;19924;-86
2022/03/22 06:30:57;;;;;;;;;;;4.70;99.90;;;;;;5116037;28;19928;-86
2022/03/22 06:33:24;;;;;;;;;;;5.80;99.90;;;;;;5116659;28;20331;-86
2022/03/22 06:35:53;;;;;;;;;;;5.80;99.90;;;;;;5116176;28;19930;-87
2022/03/22 06:38:20;;;;;;;;;;;6.40;99.90;;;;;;5116337;28;20019;-86
2022/03/22 06:40:50;;;;;;;;;;;5.90;99.90;;;;;;5115789;28;19928;-86
2022/03/22 06:43:18;;;;;;;;;;;5.80;99.90;;;;;;5115936;28;19987;-86
2022/03/22 06:45:45;;;;;;;;;;;5.50;99.90;;;;;;5115784;28;19932;-86
2022/03/22 06:48:12;;;;;;;;;;;5.90;99.90;;;;;;5115760;28;19938;-88
2022/03/22 06:50:40;;;;;;;;;;;5.90;99.90;;;;;;5115158;28;20382;-87
2022/03/22 06:53:08;;;;;;;;;;;6.30;99.90;;;;;;5115997;28;19969;-86
2022/03/22 06:55:36;;;;;;;;;;;6.20;99.90;;;;;;5115983;28;19924;-87
2022/03/22 06:58:04;;;;;;;;;;;7.10;99.90;;;;;;5115778;28;20285;-87
2022/03/22 07:00:32;;;;;;;;;;;5.50;99.90;;;;;;5115677;28;19931;-87
2022/03/22 07:03:00;;;;;;;;;;;6.60;99.90;;;;;;5115567;28;19923;-87
2022/03/22 07:05:28;;;;;;;;;;;6.50;99.90;;;;;;5115870;28;19923;-87
2022/03/22 07:07:56;;;;;;;;;;;6.80;99.90;;;;;;5116144;28;19935;-87
2022/03/22 07:10:24;;;;;;;;;;;6.50;99.90;;;;;;5124899;27;19930;-87
2022/03/22 07:12:52;;;;;;;;;;;6.50;99.90;;;;;;5131608;28;19993;-86
2022/03/22 07:15:23;;;;;;;;;;;6.90;99.90;;;;;;5130315;28;19923;-87
2022/03/22 07:17:50;;;;;;;;;;;6.80;99.90;;;;;;5128341;28;19946;-87
2022/03/22 07:20:17;;;;;;;;;;;6.80;99.90;;;;;;5118135;28;19924;-88
2022/03/22 07:22:48;;;;;;;;;;;7.50;99.90;;;;;;5115686;28;19928;-88
2022/03/22 07:25:15;;;;;;;;;;;6.80;99.90;;;;;;5116070;28;19949;-87
2022/03/22 07:27:44;;;;;;;;;;;7.10;99.90;;;;;;5115733;28;19930;-87
2022/03/22 07:30:12;;;;;;;;;;;7.40;99.90;;;;;;5115171;28;20251;-88
2022/03/22 07:32:39;;;;;;;;;;;4.50;99.90;;;;;;5115024;28;19928;-87
2022/03/22 07:35:07;;;;;;;;;;;7.10;99.90;;;;;;5115532;28;19924;-87
2022/03/22 07:37:34;;;;;;;;;;;7.60;99.90;;;;;;5115718;28;19924;-87
2022/03/22 07:40:01;;;;;;;;;;;7.30;99.90;;;;;;5114825;28;20011;-87
2022/03/22 07:42:29;;;;;;;;;;;9.40;99.90;;;;;;5114106;28;19938;-87
2022/03/22 07:44:59;;;;;;;;;;;7.40;99.90;;;;;;5094694;28;20050;-86
2022/03/22 07:47:25;;;;;;;;;;;7.90;99.90;;;;;;5101155;28;20015;-87
2022/03/22 07:55:21;;;;;;;;;;;8.00;99.90;;;;;;5115075;28;20069;-87
2022/03/22 07:57:48;;;;;;;;;;;8.30;99.90;;;;;;5119333;28;19945;-87
2022/03/22 08:00:18;;;;;;;;;;;8.80;99.90;;;;;;5114071;28;19953;-88
2022/03/22 08:02:54;;;;;;;;;;;8.60;99.90;;;;;;5115790;28;19960;-87
2022/03/22 08:05:21;;;;;;;;;;;8.80;99.90;;;;;;5096218;28;19924;-87
2022/03/22 08:07:49;;;;;;;;;;;8.90;99.90;;;;;;5096009;28;19935;-88
2022/03/22 08:10:16;;;;;;;;;;;9.60;99.90;;;;;;5110314;28;20065;-87
2022/03/22 08:12:49;;;;;;;;;;;9.40;99.90;;;;;;5118622;28;19932;-88
2022/03/22 08:15:17;;;;;;;;;;;9.80;99.90;;;;;;5116924;28;19924;-87
2022/03/22 08:17:49;;;;;;;;;;;9.60;99.90;;;;;;5115471;28;19995;-87
2022/03/22 08:20:19;;;;;;;;;;;9.90;99.90;;;;;;5115954;28;20006;-87
2022/03/22 08:22:54;;;;;;;;;;;9.80;99.90;;;;;;5101231;28;19924;-88
2022/03/22 08:25:23;;;;;;;;;;;9.80;99.90;;;;;;5106796;28;19931;-88
2022/03/22 08:27:51;;;;;;;;;;;9.90;99.90;;;;;;5113667;28;19927;-86
2022/03/22 08:30:21;;;;;;;;;;;9.90;99.90;;;;;;5115929;28;19944;-86
2022/03/22 08:32:48;;;;;;;;;;;10.20;99.90;;;;;;5115592;28;19969;-87
2022/03/22 08:35:16;;;;;;;;;;;10.60;99.90;;;;;;5116722;28;19967;-88
2022/03/22 08:37:43;;;;;;;;;;;10.90;99.90;;;;;;5114557;28;19923;-86
2022/03/22 08:40:11;;;;;;;;;;;10.90;99.90;;;;;;5114629;28;19930;-84
2022/03/22 08:42:38;;;;;;;;;;;11.80;99.90;;;;;;5114268;28;19928;-86
2022/03/22 08:45:06;;;;;;;;;;;10.90;99.90;;;;;;5102467;28;19968;-87
2022/03/22 08:47:35;;;;;;;;;;;11.40;99.90;;;;;;5094412;28;19924;-85
2022/03/22 08:50:05;;;;;;;;;;;11.80;99.90;;;;;;5104133;28;19970;-87
2022/03/22 08:52:38;;;;;;;;;;;11.70;99.90;;;;;;5114350;28;19924;-87
2022/03/22 08:55:16;;;;;;;;;;;;;;;;;;;;;
2022/03/22 08:57:44;;;;;;;;;;;12.50;99.90;;;;;;5095852;28;19924;-87
2022/03/22 09:00:12;;;;;;;;;;;11.90;99.90;;;;;;5061584;28;20357;-87
2022/03/22 09:02:42;;;;;;;;;;;12.10;99.90;;;;;;5087777;28;20414;-84
2022/03/22 09:07:56;;;;;;;;;;;12.60;99.90;;;;;;5062518;28;19931;-88
2022/03/22 09:10:27;;;;;;;;;;;12.40;99.90;;;;;;5058301;28;19939;-85
2022/03/22 09:12:54;;;;;;;;;;;12.20;99.90;;;;;;5045430;28;20080;-83
2022/03/22 09:15:26;;;;;;;;;;;12.10;99.90;;;;;;5064419;28;20313;-86
2022/03/22 09:17:55;;;;;;;;;;;12.20;99.90;;;;;;5045148;27;20888;-86
2022/03/22 09:20:22;;;;;;;;;;;12.70;99.90;;;;;;5043517;28;20373;-86
2022/03/22 09:22:51;;;;;;;;;;;9.90;99.90;;;;;;5056104;27;19920;-85
2022/03/22 09:25:22;;;;;;;;;;;12.20;99.90;;;;;;5049422;28;19936;-83
2022/03/22 09:27:49;;;;;;;;;;;12.00;99.90;;;;;;5061531;28;20306;-85
2022/03/22 09:30:17;;;;;;;;;;;11.10;99.90;;;;;;5050778;27;20558;-83
2022/03/22 09:32:43;;;;;;;;;;;12.40;99.90;;;;;;5063400;28;19932;-81
2022/03/22 09:35:13;;;;;;;;;;;12.60;99.90;;;;;;5056168;28;20157;-84
2022/03/22 09:37:42;;;;;;;;;;;13.30;99.90;;;;;;5040735;27;19955;-84
2022/03/22 09:40:09;;;;;;;;;;;10.50;99.90;;;;;;5037232;28;19931;-83
2022/03/22 09:42:38;;;;;;;;;;;12.80;99.90;;;;;;5056041;28;20057;-83
2022/03/22 09:45:08;;;;;;;;;;;9.90;99.90;;;;;;5054815;28;20678;-86
2022/03/22 09:47:35;;;;;;;;;;;13.30;99.90;;;;;;5085491;27;19999;-85
2022/03/22 09:50:02;;;;;;;;;;;13.50;99.90;;;;;;5111697;28;19975;-85
2022/03/22 09:52:31;;;;;;;;;;;13.80;99.90;;;;;;5105500;28;20068;-84
2022/03/22 09:54:58;;;;;;;;;;;14.20;99.90;;;;;;5111775;28;19928;-84
2022/03/22 09:57:24;;;;;;;;;;;14.80;99.90;;;;;;5111220;28;19923;-83
2022/03/22 09:59:51;;;;;;;;;;;15.10;99.90;;;;;;5111616;28;19944;-86
2022/03/22 10:02:26;;;;;;;;;;;14.50;99.90;;;;;;5108680;28;19932;-86
2022/03/22 10:04:53;;;;;;;;;;;14.60;99.90;;;;;;5116245;28;19927;-84
2022/03/22 10:07:21;;;;;;;;;;;14.90;99.90;;;;;;5110770;28;19931;-86
2022/03/22 10:09:53;;;;;;;;;;;14.70;99.90;;;;;;5113711;28;19924;-85
2022/03/22 10:12:29;;;;;;;;;;;14.80;99.90;;;;;;5106094;28;19934;-85
2022/03/22 10:15:06;;;;;;;;;;;13.50;99.90;;;;;;5111950;28;19938;-86
2022/03/22 10:17:35;;;;;;;;;;;14.90;99.90;;;;;;5109007;28;19976;-88
2022/03/22 10:20:03;;;;;;;;;;;14.70;99.90;;;;;;5112543;28;20281;-85
2022/03/22 10:22:35;;;;;;;;;;;15.00;99.90;;;;;;5104710;28;19985;-86
2022/03/22 10:25:05;;;;;;;;;;;14.50;99.90;;;;;;5098360;28;19924;-86
2022/03/22 10:27:33;;;;;;;;;;;15.90;99.90;;;;;;5111333;28;19931;-85
2022/03/22 10:30:01;;;;;;;;;;;15.20;99.90;;;;;;5114402;28;20439;-87
2022/03/22 10:32:33;;;;;;;;;;;15.00;99.90;;;;;;5110391;28;19976;-86
2022/03/22 10:35:12;;;;;;;;;;;14.00;99.90;;;;;;5097594;28;19928;-86
2022/03/22 10:37:42;;;;;;;;;;;15.00;99.90;;;;;;5109787;28;19977;-85
2022/03/22 10:40:21;;;;;;;;;;;16.60;99.90;;;;;;5112235;28;19924;-87
2022/03/22 10:42:49;;;;;;;;;;;15.50;99.90;;;;;;5106101;28;20023;-86
2022/03/22 10:45:17;;;;;;;;;;;14.90;99.90;;;;;;5107823;28;20293;-86
2022/03/22 10:47:44;;;;;;;;;;;15.20;99.90;;;;;;5114488;28;19928;-85
2022/03/22 10:50:11;;;;;;;;;;;14.80;99.90;;;;;;5111439;28;20627;-84
2022/03/22 10:52:49;;;;;;;;;;;15.30;99.90;;;;;;5111842;28;20018;-86
2022/03/22 10:55:19;;;;;;;;;;;15.50;99.90;;;;;;5110408;28;19939;-86
2022/03/22 10:57:52;;;;;;;;;;;18.80;99.90;;;;;;5105250;28;19924;-84
2022/03/22 11:00:20;;;;;;;;;;;15.70;99.90;;;;;;5111783;28;20322;-86
2022/03/22 11:02:48;;;;;;;;;;;16.20;99.90;;;;;;5111643;28;19936;-85
2022/03/22 11:05:19;;;;;;;;;;;16.10;99.90;;;;;;5106575;28;19928;-87
2022/03/22 11:07:46;;;;;;;;;;;16.10;99.90;;;;;;5110153;28;20278;-87
2022/03/22 11:10:13;;;;;;;;;;;16.40;99.90;;;;;;5112223;28;19931;-87
2022/03/22 11:12:40;;;;;;;;;;;16.60;99.90;;;;;;5108312;28;19969;-85
2022/03/22 11:15:11;;;;;;;;;;;16.80;99.90;;;;;;5102760;28;20374;-87
2022/03/22 11:17:39;;;;;;;;;;;17.00;99.90;;;;;;5108892;28;19931;-84
2022/03/22 11:20:08;;;;;;;;;;;17.20;99.90;;;;;;5111300;28;20361;-84
2022/03/22 11:22:35;;;;;;;;;;;17.20;99.90;;;;;;5105818;28;19923;-89
2022/03/22 11:25:09;;;;;;;;;;;17.30;99.90;;;;;;5022690;28;19920;-89
2022/03/22 11:27:37;;;;;;;;;;;17.40;99.90;;;;;;5064372;28;19935;-87
2022/03/22 11:30:08;;;;;;;;;;;17.30;99.80;;;;;;5113623;28;19935;-86
2022/03/22 11:35:24;;;;;;;;;;;17.00;99.60;;;;;;5111866;28;19939;-83
2022/03/22 11:37:55;;;;;;;;;;;17.10;99.40;;;;;;5109467;28;20382;-85
2022/03/22 11:43:10;;;;;;;;;;;17.40;99.70;;;;;;5108857;28;19969;-83
2022/03/22 11:45:46;;;;;;;;;;;17.40;99.30;;;;;;5114142;28;19923;-86
2022/03/22 11:48:16;;;;;;;;;;;17.50;98.90;;;;;;5104559;28;19924;-84
2022/03/22 11:50:43;;;;;;;;;;;17.40;98.80;;;;;;5100372;28;19930;-81
2022/03/22 11:53:17;;;;;;;;;;;17.60;98.80;;;;;;5103541;28;20009;-82
2022/03/22 11:55:44;;;;;;;;;;;17.60;99.10;;;;;;5092457;28;19974;-83
2022/03/22 11:58:10;;;;;;;;;;;18.30;98.80;;;;;;5107922;28;19970;-86
2022/03/22 12:00:51;;;;;;;;;;;17.00;98.80;;;;;;5110157;28;20006;-84
2022/03/22 12:03:23;;;;;;;;;;;17.90;97.80;;;;;;5112317;28;20356;-84
2022/03/22 12:05:53;;;;;;;;;;;17.70;97.60;;;;;;5109128;28;20714;-86
2022/03/22 12:08:20;;;;;;;;;;;18.10;97.60;;;;;;5110346;28;19923;-86
2022/03/22 12:10:47;;;;;;;;;;;18.00;97.60;;;;;;5112546;28;19931;-88
2022/03/22 12:13:14;;;;;;;;;;;18.10;97.20;;;;;;5104390;28;19942;-85
2022/03/22 12:15:42;;;;;;;;;;;18.60;97.40;;;;;;5106316;28;19977;-86
2022/03/22 12:18:10;;;;;;;;;;;18.20;97.80;;;;;;5109280;28;19923;-87
2022/03/22 12:20:38;;;;;;;;;;;18.40;96.60;;;;;;5109913;28;20594;-85
2022/03/22 12:23:06;;;;;;;;;;;18.40;96.30;;;;;;5100537;28;20427;-87
2022/03/22 12:25:34;;;;;;;;;;;18.40;96.00;;;;;;5102533;28;19924;-83
2022/03/22 12:28:02;;;;;;;;;;;18.30;95.50;;;;;;5103499;28;19930;-85
2022/03/22 12:30:30;;;;;;;;;;;18.80;96.50;;;;;;5114475;28;19927;-83
2022/03/22 12:32:57;;;;;;;;;;;18.50;95.50;;;;;;5108015;28;19975;-86
2022/03/22 12:35:24;;;;;;;;;;;18.40;95.20;;;;;;5099784;28;20059;-87
2022/03/22 12:37:53;;;;;;;;;;;18.40;95.50;;;;;;5103607;28;19924;-85
2022/03/22 12:40:20;;;;;;;;;;;18.10;95.70;;;;;;5103457;28;19931;-85
2022/03/22 12:42:50;;;;;;;;;;;18.30;95.70;;;;;;5103465;28;19948;-84
2022/03/22 12:45:17;;;;;;;;;;;18.30;95.80;;;;;;5114740;28;20354;-85
2022/03/22 12:47:45;;;;;;;;;;;18.40;96.20;;;;;;5107403;28;19949;-89
2022/03/22 12:50:12;;;;;;;;;;;18.40;96.20;;;;;;5118064;28;19980;-85
2022/03/22 12:52:39;;;;;;;;;;;18.40;96.20;;;;;;5063690;28;19947;-88
2022/03/22 12:55:09;;;;;;;;;;;18.50;96.30;;;;;;5024717;28;20305;-87
2022/03/22 12:57:38;;;;;;;;;;;18.40;96.10;;;;;;5028505;28;19931;-90
2022/03/22 13:00:06;;;;;;;;;;;18.40;95.80;;;;;;5021386;28;19946;-89
2022/03/22 13:02:37;;;;;;;;;;;20.50;96.00;;;;;;5020135;28;19927;-92
2022/03/22 13:05:05;;;;;;;;;;;18.50;95.60;;;;;;5019806;28;19928;-86
2022/03/22 13:07:33;;;;;;;;;;;18.30;95.40;;;;;;5025570;28;20662;-89
2022/03/22 13:12:48;;;;;;;;;;;18.40;95.40;;;;;;5065385;28;19931;-88
2022/03/22 13:15:15;;;;;;;;;;;18.40;95.50;;;;;;5118565;27;19955;-86
2022/03/22 13:17:43;;;;;;;;;;;18.40;95.40;;;;;;5112790;28;19963;-85
2022/03/22 13:20:17;;;;;;;;;;;18.50;95.60;;;;;;5102621;28;19939;-86
2022/03/22 13:22:54;;;;;;;;;;;19.00;95.80;;;;;;5109228;28;19935;-83
2022/03/22 13:25:24;;;;;;;;;;;19.30;95.40;;;;;;5100323;28;19968;-85
2022/03/22 13:27:57;;;;;;;;;;;18.70;95.50;;;;;;5112467;28;20318;-84
2022/03/22 13:30:26;;;;;;;;;;;18.80;94.80;;;;;;5093621;28;20395;-86
2022/03/22 13:32:54;;;;;;;;;;;18.80;94.90;;;;;;5098861;28;20351;-86
2022/03/22 13:35:21;;;;;;;;;;;18.80;94.60;;;;;;5097818;28;19924;-88
2022/03/22 13:37:49;;;;;;;;;;;18.90;94.80;;;;;;5104221;28;20292;-86
2022/03/22 13:40:16;;;;;;;;;;;19.10;95.10;;;;;;5097181;28;19939;-84
2022/03/22 13:42:58;;;;;;;;;;;19.00;94.80;;;;;;5113471;27;19969;-85
2022/03/22 13:45:25;;;;;;;;;;;19.00;94.90;;;;;;5021112;28;19972;-87
2022/03/22 13:47:54;;;;;;;;;;;19.00;95.10;;;;;;5028589;28;20063;-86
2022/03/22 13:50:22;;;;;;;;;;;18.90;95.30;;;;;;5067189;28;19932;-85
2022/03/22 13:52:59;;;;;;;;;;;18.90;95.30;;;;;;5037038;28;20213;-87
2022/03/22 13:55:26;;;;;;;;;;;19.90;95.40;;;;;;5013802;28;20586;-87
2022/03/22 13:57:54;;;;;;;;;;;18.30;95.20;;;;;;5032328;28;19984;-88
2022/03/22 14:00:22;;;;;;;;;;;18.70;95.90;;;;;;5013280;28;19934;-86
2022/03/22 14:02:50;;;;;;;;;;;19.20;95.80;;;;;;5029464;28;19946;-86
2022/03/22 14:05:18;;;;;;;;;;;18.60;96.00;;;;;;5016187;28;19932;-86
2022/03/22 14:07:51;;;;;;;;;;;18.60;96.10;;;;;;5048878;28;19969;-85
2022/03/22 14:10:18;;;;;;;;;;;18.60;95.20;;;;;;5096591;28;19931;-86
2022/03/22 14:12:45;;;;;;;;;;;18.60;95.60;;;;;;5105787;28;19925;-84
2022/03/22 14:15:12;;;;;;;;;;;18.60;95.70;;;;;;5110973;28;19942;-88
2022/03/22 14:17:40;;;;;;;;;;;18.70;95.60;;;;;;5115777;28;19989;-83
2022/03/22 14:20:08;;;;;;;;;;;18.80;94.80;;;;;;5116115;27;19959;-85
2022/03/22 14:22:34;;;;;;;;;;;18.80;95.20;;;;;;5114593;28;20293;-87
2022/03/22 14:25:01;;;;;;;;;;;18.80;94.90;;;;;;5112413;28;19962;-87
2022/03/22 14:27:29;;;;;;;;;;;18.80;95.00;;;;;;5108590;28;19959;-87
2022/03/22 14:29:57;;;;;;;;;;;18.80;94.90;;;;;;5113468;28;19927;-84
2022/03/22 14:32:24;;;;;;;;;;;18.90;95.00;;;;;;5108122;27;19924;-85
2022/03/22 14:37:36;;;;;;;;;;;18.80;94.60;;;;;;5111068;28;19939;-86
2022/03/22 14:40:03;;;;;;;;;;;18.90;94.60;;;;;;5109132;28;19928;-86
2022/03/22 14:42:30;;;;;;;;;;;19.00;94.80;;;;;;5106026;27;19924;-85
2022/03/22 14:44:57;;;;;;;;;;;18.90;94.70;;;;;;5110595;28;19924;-85
2022/03/22 14:47:24;;;;;;;;;;;17.90;94.90;;;;;;5106191;28;19923;-88
2022/03/22 14:49:52;;;;;;;;;;;18.90;95.40;;;;;;5106775;28;19924;-85
2022/03/22 14:55:03;;;;;;;;;;;21.40;96.60;;;;;;5109096;28;19931;-87
2022/03/22 15:00:16;;;;;;;;;;;18.60;95.50;;;;;;5080364;28;19924;-86
2022/03/22 15:02:44;;;;;;;;;;;18.60;95.40;;;;;;5114465;28;19985;-85
2022/03/22 15:07:56;;;;;;;;;;;18.70;95.40;;;;;;5108384;28;19924;-84
2022/03/22 15:10:23;;;;;;;;;;;18.80;95.40;;;;;;5111419;28;19924;-84
2022/03/22 15:12:50;;;;;;;;;;;19.00;97.00;;;;;;5106424;28;19928;-86
2022/03/22 15:15:20;;;;;;;;;;;19.70;95.60;;;;;;5113190;27;19931;-84
2022/03/22 15:17:47;;;;;;;;;;;18.40;94.90;;;;;;5109845;28;19932;-85
2022/03/22 15:20:15;;;;;;;;;;;19.10;95.20;;;;;;5109260;28;19924;-86